createdAt,value
2018-01-26T00:00:47.878Z,12.93
2018-01-26T00:03:15.570Z,7.87
2018-01-26T00:05:44.001Z,8.57
2018-01-26T00:08:11.697Z,6.53
2018-01-26T00:10:39.279Z,9.90
2018-01-26T00:13:07.811Z,9.23
2018-01-26T00:15:35.544Z,8.10
2018-01-26T00:18:03.165Z,5.97
2018-01-26T00:20:30.771Z,6.67
2018-01-26T00:22:58.723Z,8.40
2018-01-26T00:25:26.367Z,8.33
2018-01-26T00:27:54.031Z,7.17
2018-01-26T00:30:22.052Z,8.40
2018-01-26T00:32:49.686Z,12.00
2018-01-26T00:35:17.309Z,6.33
2018-01-26T00:37:44.981Z,6.07
2018-01-26T00:40:12.568Z,7.20
2018-01-26T00:42:40.900Z,6.43
2018-01-26T00:45:08.673Z,8.53
2018-01-26T00:47:36.381Z,7.07
2018-01-26T00:50:04.074Z,8.90
2018-01-26T00:52:31.732Z,6.77
2018-01-26T00:54:59.439Z,7.23
2018-01-26T00:57:28.731Z,6.80
2018-01-26T00:59:56.391Z,7.00
2018-01-26T01:02:23.948Z,5.53
2018-01-26T01:04:51.807Z,6.90
2018-01-26T01:07:19.470Z,6.47
2018-01-26T01:09:47.092Z,6.13
2018-01-26T01:12:16.257Z,7.97
2018-01-26T01:14:44.644Z,10.00
2018-01-26T01:17:12.218Z,5.47
2018-01-26T01:19:40.628Z,7.93
2018-01-26T01:22:08.307Z,9.43
2018-01-26T01:24:36.742Z,6.73
2018-01-26T01:27:05.073Z,9.33
2018-01-26T01:29:32.701Z,9.20
2018-01-26T01:32:01.128Z,8.10
2018-01-26T01:34:29.595Z,7.03
2018-01-26T01:36:57.307Z,7.37
2018-01-26T01:39:25.115Z,9.50
2018-01-26T01:41:52.715Z,7.40
2018-01-26T01:44:20.395Z,7.00
2018-01-26T01:46:48.762Z,8.70
2018-01-26T01:49:16.333Z,7.47
2018-01-26T01:51:45.520Z,8.97
2018-01-26T01:54:13.200Z,6.60
2018-01-26T01:56:40.971Z,8.20
2018-01-26T01:59:09.352Z,7.10
2018-01-26T02:01:41.206Z,6.13
2018-01-26T02:04:09.727Z,6.50
2018-01-26T02:06:38.562Z,6.70
2018-01-26T02:09:06.211Z,5.20
2018-01-26T02:11:34.642Z,6.23
2018-01-26T02:14:02.367Z,6.67
2018-01-26T02:16:30.748Z,6.90
2018-01-26T02:18:58.317Z,9.87
2018-01-26T02:21:30.964Z,7.30
2018-01-26T02:23:58.574Z,6.23
2018-01-26T02:26:26.931Z,10.90
2018-01-26T02:28:54.921Z,6.70
2018-01-26T02:31:22.561Z,9.60
2018-01-26T02:33:50.157Z,7.27
2018-01-26T02:36:18.563Z,7.77
2018-01-26T02:38:46.207Z,7.90
2018-01-26T02:41:13.886Z,7.97
2018-01-26T02:43:41.543Z,6.60
2018-01-26T02:46:09.099Z,6.67
2018-01-26T02:48:36.779Z,7.90
2018-01-26T02:51:04.710Z,12.83
2018-01-26T02:53:32.678Z,7.00
2018-01-26T02:56:00.284Z,5.70
2018-01-26T02:58:27.942Z,6.00
2018-01-26T03:00:55.531Z,6.50
2018-01-26T03:03:26.439Z,5.73
2018-01-26T03:05:54.197Z,11.50
2018-01-26T03:08:21.959Z,7.67
2018-01-26T03:10:49.519Z,7.17
2018-01-26T03:13:17.235Z,6.90
2018-01-26T03:15:44.985Z,6.53
2018-01-26T03:18:12.696Z,7.30
2018-01-26T03:20:40.464Z,6.20
2018-01-26T03:23:08.955Z,7.57
2018-01-26T03:25:36.569Z,5.43
2018-01-26T03:28:04.202Z,8.23
2018-01-26T03:30:31.779Z,6.70
2018-01-26T03:32:59.325Z,5.70
2018-01-26T03:35:27.023Z,7.40
2018-01-26T03:37:54.646Z,7.20
2018-01-26T03:40:22.308Z,7.67
2018-01-26T03:42:50.295Z,5.07
2018-01-26T03:45:18.672Z,5.90
2018-01-26T03:47:46.392Z,13.17
2018-01-26T03:50:14.115Z,8.97
2018-01-26T03:52:42.577Z,8.17
2018-01-26T03:55:10.275Z,8.73
2018-01-26T03:57:38.185Z,10.13
2018-01-26T04:00:06.008Z,6.17
2018-01-26T04:02:35.357Z,7.30
2018-01-26T04:05:02.989Z,7.93
2018-01-26T04:07:30.804Z,7.63
2018-01-26T04:09:58.433Z,8.30
2018-01-26T04:12:27.104Z,6.70
2018-01-26T04:14:54.726Z,7.27
2018-01-26T04:17:22.337Z,7.20
2018-01-26T04:19:50.140Z,7.50
2018-01-26T04:22:17.800Z,11.67
2018-01-26T04:24:45.821Z,9.17
2018-01-26T04:27:13.528Z,6.60
2018-01-26T04:29:41.323Z,9.13
2018-01-26T04:32:09.950Z,7.50
2018-01-26T04:34:38.291Z,9.03
2018-01-26T04:37:05.971Z,9.20
2018-01-26T04:39:34.344Z,7.00
2018-01-26T04:42:02.877Z,7.70
2018-01-26T04:44:30.596Z,11.10
2018-01-26T04:46:59.004Z,9.57
2018-01-26T04:49:26.663Z,7.63
2018-01-26T04:51:54.280Z,10.27
2018-01-26T04:54:21.871Z,8.00
2018-01-26T04:56:50.575Z,8.23
2018-01-26T04:59:18.244Z,7.50
2018-01-26T05:01:45.933Z,10.90
2018-01-26T05:04:13.837Z,8.60
2018-01-26T05:06:42.237Z,13.30
2018-01-26T05:09:09.921Z,8.80
2018-01-26T05:11:37.802Z,8.77
2018-01-26T05:14:05.522Z,9.93
2018-01-26T05:16:33.886Z,10.03
2018-01-26T05:19:01.688Z,10.30
2018-01-26T05:21:29.429Z,16.47
2018-01-26T05:23:57.921Z,9.30
2018-01-26T05:26:26.384Z,7.87
2018-01-26T05:28:54.126Z,9.53
2018-01-26T05:31:21.814Z,11.23
2018-01-26T05:33:50.198Z,7.80
2018-01-26T05:36:17.764Z,8.83
2018-01-26T05:38:46.182Z,10.10
2018-01-26T05:41:13.894Z,8.10
2018-01-26T05:43:42.229Z,8.40
2018-01-26T05:46:09.983Z,7.40
2018-01-26T05:48:37.749Z,10.20
2018-01-26T05:51:05.307Z,8.10
2018-01-26T05:53:32.940Z,12.10
2018-01-26T05:56:01.432Z,8.30
2018-01-26T05:58:29.909Z,10.20
2018-01-26T06:00:58.343Z,9.37
2018-01-26T06:03:26.036Z,8.60
2018-01-26T06:05:54.384Z,8.13
2018-01-26T06:08:22.093Z,9.30
2018-01-26T06:10:50.761Z,7.63
2018-01-26T06:13:18.473Z,12.03
2018-01-26T06:15:46.120Z,7.70
2018-01-26T06:18:14.773Z,8.77
2018-01-26T06:20:42.638Z,14.43
2018-01-26T06:23:10.396Z,11.50
2018-01-26T06:25:38.189Z,9.57
2018-01-26T06:28:06.690Z,11.73
2018-01-26T06:30:37.408Z,8.07
2018-01-26T06:33:06.015Z,9.87
2018-01-26T06:35:35.136Z,12.73
2018-01-26T06:38:03.151Z,10.17
2018-01-26T06:40:30.837Z,10.17
2018-01-26T06:42:58.560Z,11.23
2018-01-26T06:45:26.420Z,8.70
2018-01-26T06:47:54.180Z,9.37
2018-01-26T06:50:21.867Z,8.63
2018-01-26T06:52:49.604Z,10.73
2018-01-26T06:55:17.334Z,10.07
2018-01-26T06:57:46.196Z,8.10
2018-01-26T07:00:14.970Z,10.07
2018-01-26T07:02:42.627Z,8.90
2018-01-26T07:05:10.329Z,12.20
2018-01-26T07:07:39.054Z,11.43
2018-01-26T07:10:06.685Z,10.37
2018-01-26T07:12:35.701Z,13.50
2018-01-26T07:15:03.531Z,9.60
2018-01-26T07:17:32.161Z,11.47
2018-01-26T07:19:59.862Z,8.73
2018-01-26T07:22:27.544Z,10.27
2018-01-26T07:24:56.148Z,10.40
2018-01-26T07:27:23.752Z,12.93
2018-01-26T07:29:51.514Z,9.00
2018-01-26T07:32:19.266Z,9.60
2018-01-26T07:34:47.060Z,9.27
2018-01-26T07:37:14.898Z,11.00
2018-01-26T07:39:42.735Z,9.83
2018-01-26T07:42:10.433Z,12.30
2018-01-26T07:44:38.166Z,11.40
2018-01-26T07:47:05.799Z,8.90
2018-01-26T07:49:34.330Z,8.93
2018-01-26T07:52:01.902Z,12.40
2018-01-26T07:54:29.604Z,10.20
2018-01-26T07:56:57.232Z,8.83
2018-01-26T07:59:25.820Z,12.13
2018-01-26T08:01:53.906Z,9.73
2018-01-26T08:04:21.505Z,15.53
2018-01-26T08:06:49.265Z,10.47
2018-01-26T08:09:17.995Z,9.00
2018-01-26T08:11:45.644Z,8.37
2018-01-26T08:14:13.315Z,10.00
2018-01-26T08:16:41.315Z,10.70
2018-01-26T08:19:09.828Z,11.37
2018-01-26T08:21:38.261Z,10.50
2018-01-26T08:24:06.114Z,10.10
2018-01-26T08:26:33.748Z,11.83
2018-01-26T08:29:02.100Z,11.03
2018-01-26T08:31:29.809Z,15.30
2018-01-26T08:33:57.379Z,9.67
2018-01-26T08:36:25.611Z,13.87
2018-01-26T08:38:53.871Z,10.73
2018-01-26T08:41:21.436Z,10.30
2018-01-26T08:43:49.144Z,12.47
2018-01-26T08:46:17.002Z,11.17
2018-01-26T08:48:44.616Z,10.00
2018-01-26T08:51:12.426Z,11.93
2018-01-26T08:53:40.509Z,9.53
2018-01-26T08:56:08.241Z,17.70
2018-01-26T08:58:36.583Z,11.87
2018-01-26T09:01:04.171Z,9.00
2018-01-26T09:03:32.075Z,9.57
2018-01-26T09:05:59.839Z,15.93
2018-01-26T09:08:28.537Z,9.97
2018-01-26T09:10:56.287Z,9.67
2018-01-26T09:13:23.875Z,9.80
2018-01-26T09:15:51.791Z,8.43
2018-01-26T09:18:19.491Z,10.33
2018-01-26T09:20:47.222Z,14.50
2018-01-26T09:23:15.804Z,16.20
2018-01-26T09:25:44.223Z,10.30
2018-01-26T09:28:11.885Z,9.80
2018-01-26T09:30:39.574Z,8.70
2018-01-26T09:33:07.242Z,10.83
2018-01-26T09:35:34.898Z,8.87
2018-01-26T09:38:02.537Z,10.10
2018-01-26T09:40:30.263Z,11.43
2018-01-26T09:42:58.762Z,14.03
2018-01-26T09:45:27.300Z,9.27
2018-01-26T09:47:54.961Z,16.40
2018-01-26T09:50:22.514Z,12.83
2018-01-26T09:52:50.805Z,10.43
2018-01-26T09:55:18.588Z,9.17
2018-01-26T09:57:46.159Z,10.20
2018-01-26T10:00:13.935Z,11.50
2018-01-26T10:02:41.543Z,12.50
2018-01-26T10:05:09.459Z,10.77
2018-01-26T10:07:37.811Z,11.40
2018-01-26T10:10:06.295Z,13.67
2018-01-26T10:12:34.056Z,10.83
2018-01-26T10:15:01.886Z,11.00
2018-01-26T10:17:29.821Z,9.57
2018-01-26T10:19:59.408Z,17.00
2018-01-26T10:22:27.075Z,11.10
2018-01-26T10:24:54.661Z,17.90
2018-01-26T10:27:23.246Z,14.43
2018-01-26T10:29:51.721Z,9.63
2018-01-26T10:32:20.141Z,9.80
2018-01-26T10:34:47.810Z,10.47
2018-01-26T10:37:16.260Z,13.30
2018-01-26T10:39:43.865Z,9.17
2018-01-26T10:42:11.795Z,13.40
2018-01-26T10:44:39.492Z,10.00
2018-01-26T10:47:07.961Z,10.77
2018-01-26T10:49:35.598Z,13.10
2018-01-26T10:52:04.095Z,8.87
2018-01-26T10:54:31.663Z,9.30
2018-01-26T10:56:59.278Z,11.60
2018-01-26T10:59:27.082Z,9.27
2018-01-26T11:01:54.697Z,11.43
2018-01-26T11:04:23.047Z,9.33
2018-01-26T11:06:51.003Z,9.43
2018-01-26T11:09:19.055Z,11.00
2018-01-26T11:11:47.496Z,10.53
2018-01-26T11:14:15.343Z,10.90
2018-01-26T11:16:42.957Z,12.30
2018-01-26T11:19:11.346Z,12.03
2018-01-26T11:21:39.069Z,10.90
2018-01-26T11:24:06.823Z,11.77
2018-01-26T11:26:34.435Z,9.80
2018-01-26T11:29:02.076Z,10.10
2018-01-26T11:31:30.619Z,12.90
2018-01-26T11:33:58.448Z,10.50
2018-01-26T11:36:26.219Z,10.93
2018-01-26T11:38:54.009Z,9.40
2018-01-26T11:41:21.778Z,9.70
2018-01-26T11:43:49.401Z,10.43
2018-01-26T11:46:17.948Z,9.80
2018-01-26T11:48:45.602Z,9.53
2018-01-26T11:51:13.322Z,10.90
2018-01-26T11:53:41.321Z,8.10
2018-01-26T11:56:09.081Z,10.10
2018-01-26T11:58:36.923Z,11.43
2018-01-26T12:01:04.526Z,8.37
2018-01-26T12:03:32.228Z,12.83
2018-01-26T12:06:00.688Z,7.63
2018-01-26T12:08:28.484Z,9.17
2018-01-26T12:10:58.090Z,10.27
2018-01-26T12:13:25.806Z,11.40
2018-01-26T12:15:53.407Z,8.90
2018-01-26T12:18:21.762Z,12.07
2018-01-26T12:20:49.655Z,10.10
2018-01-26T12:23:19.219Z,11.30
2018-01-26T12:25:46.984Z,9.03
2018-01-26T12:28:14.751Z,10.50
2018-01-26T12:30:42.898Z,11.50
2018-01-26T12:33:10.660Z,12.70
2018-01-26T12:35:38.342Z,11.80
2018-01-26T12:38:06.102Z,10.63
2018-01-26T12:40:34.031Z,10.23
2018-01-26T12:43:02.407Z,9.63
2018-01-26T12:45:31.119Z,14.90
2018-01-26T12:47:58.781Z,13.23
2018-01-26T12:50:26.487Z,9.27
2018-01-26T12:52:54.105Z,12.17
2018-01-26T12:55:22.513Z,12.30
2018-01-26T12:57:50.214Z,10.70
2018-01-26T13:00:17.845Z,15.10
2018-01-26T13:02:45.640Z,16.40
2018-01-26T13:05:13.299Z,10.27
2018-01-26T13:07:41.134Z,15.30
2018-01-26T13:10:10.026Z,9.50
2018-01-26T13:12:37.807Z,11.07
2018-01-26T13:15:05.460Z,10.37
2018-01-26T13:17:33.018Z,11.30
2018-01-26T13:20:00.773Z,9.60
2018-01-26T13:22:28.345Z,9.57
2018-01-26T13:24:55.933Z,7.73
2018-01-26T13:27:23.673Z,8.83
2018-01-26T13:29:51.263Z,7.33
2018-01-26T13:32:19.022Z,6.60
2018-01-26T13:34:46.820Z,8.47
2018-01-26T13:37:15.368Z,6.60
2018-01-26T13:39:44.309Z,9.43
2018-01-26T13:42:12.138Z,6.63
2018-01-26T13:44:39.751Z,6.53
2018-01-26T13:47:07.482Z,8.83
2018-01-26T13:49:35.893Z,4.27
2018-01-26T13:52:03.523Z,5.63
2018-01-26T13:54:32.023Z,7.17
2018-01-26T13:57:00.158Z,10.00
2018-01-26T13:59:28.503Z,7.07
2018-01-26T14:01:56.444Z,6.93
2018-01-26T14:04:24.297Z,6.00
2018-01-26T14:06:52.707Z,7.97
2018-01-26T14:09:20.454Z,7.37
2018-01-26T14:11:48.197Z,7.03
2018-01-26T14:14:16.612Z,7.10
2018-01-26T14:16:44.346Z,6.80
2018-01-26T14:19:13.086Z,7.17
2018-01-26T14:21:40.664Z,7.63
2018-01-26T14:24:09.088Z,5.63
2018-01-26T14:26:37.456Z,4.73
2018-01-26T14:29:05.809Z,8.10
2018-01-26T14:31:33.423Z,5.20
2018-01-26T14:34:01.133Z,8.87
2018-01-26T14:36:28.892Z,9.53
2018-01-26T14:38:56.531Z,7.80
2018-01-26T14:41:24.285Z,5.53
2018-01-26T14:43:52.107Z,6.60
2018-01-26T14:46:19.716Z,7.10
2018-01-26T14:48:47.659Z,7.60
2018-01-26T14:51:16.047Z,6.73
2018-01-26T14:53:44.598Z,6.93
2018-01-26T14:56:12.250Z,8.13
2018-01-26T14:58:39.893Z,6.83
2018-01-26T15:01:07.578Z,8.30
2018-01-26T15:03:35.254Z,10.20
2018-01-26T15:06:03.651Z,10.00
2018-01-26T15:08:32.275Z,11.90
2018-01-26T15:10:59.954Z,10.43
2018-01-26T15:13:27.852Z,9.63
2018-01-26T15:15:56.260Z,9.80
2018-01-26T15:18:25.765Z,10.50
2018-01-26T15:20:53.513Z,9.13
2018-01-26T15:23:21.851Z,12.10
2018-01-26T15:25:49.739Z,10.67
2018-01-26T15:28:18.230Z,8.30
2018-01-26T15:30:46.717Z,10.20
2018-01-26T15:33:15.108Z,7.70
2018-01-26T15:35:43.718Z,6.60
2018-01-26T15:38:11.489Z,8.13
2018-01-26T15:40:39.112Z,8.07
2018-01-26T15:43:07.514Z,7.50
2018-01-26T15:45:35.917Z,7.33
2018-01-26T15:48:03.689Z,8.60
2018-01-26T15:50:31.422Z,6.33
2018-01-26T15:52:59.936Z,7.07
2018-01-26T15:55:27.521Z,8.00
2018-01-26T15:57:55.077Z,9.00
2018-01-26T16:00:22.850Z,8.57
2018-01-26T16:02:50.755Z,8.10
2018-01-26T16:05:19.127Z,8.50
2018-01-26T16:07:47.646Z,7.27
2018-01-26T16:10:15.459Z,8.60
2018-01-26T16:12:43.143Z,7.27
2018-01-26T16:15:11.493Z,10.23
2018-01-26T16:17:40.100Z,7.03
2018-01-26T16:20:07.813Z,8.80
2018-01-26T16:22:35.458Z,6.97
2018-01-26T16:25:03.090Z,6.10
2018-01-26T16:27:31.051Z,10.90
2018-01-26T16:29:59.467Z,7.57
2018-01-26T16:32:27.164Z,9.37
2018-01-26T16:34:54.890Z,8.07
2018-01-26T16:37:22.663Z,8.00
2018-01-26T16:39:50.262Z,8.17
2018-01-26T16:42:17.827Z,10.43
2018-01-26T16:44:45.597Z,8.67
2018-01-26T16:47:13.595Z,9.50
2018-01-26T16:49:42.312Z,13.07
2018-01-26T16:52:10.250Z,7.83
2018-01-26T16:54:39.414Z,8.97
2018-01-26T16:57:07.234Z,9.27
2018-01-26T16:59:34.857Z,7.70
2018-01-26T17:02:02.511Z,7.70
2018-01-26T17:04:30.199Z,11.40
2018-01-26T17:06:59.096Z,9.77
2018-01-26T17:09:27.519Z,9.73
2018-01-26T17:11:55.231Z,9.23
2018-01-26T17:14:23.719Z,7.00
2018-01-26T17:16:52.420Z,7.73
2018-01-26T17:19:20.150Z,10.40
2018-01-26T17:21:47.773Z,7.80
2018-01-26T17:24:15.610Z,7.83
2018-01-26T17:26:43.602Z,9.23
2018-01-26T17:29:12.321Z,7.07
2018-01-26T17:31:40.305Z,7.70
2018-01-26T17:34:08.669Z,8.80
2018-01-26T17:36:36.222Z,9.37
2018-01-26T17:39:03.804Z,9.57
2018-01-26T17:41:31.434Z,11.93
2018-01-26T17:43:59.066Z,12.23
2018-01-26T17:46:27.469Z,7.83
2018-01-26T17:48:55.034Z,9.30
2018-01-26T17:51:22.596Z,11.57
2018-01-26T17:53:50.206Z,7.20
2018-01-26T17:56:17.819Z,10.50
2018-01-26T17:58:45.526Z,8.83
2018-01-26T18:01:13.907Z,8.13
2018-01-26T18:03:41.524Z,7.83
2018-01-26T18:06:09.925Z,14.90
2018-01-26T18:08:37.743Z,7.93
2018-01-26T18:11:05.400Z,11.30
2018-01-26T18:13:32.984Z,8.13
2018-01-26T18:16:00.712Z,9.10
2018-01-26T18:18:29.232Z,7.37
2018-01-26T18:20:56.809Z,7.47
2018-01-26T18:23:24.617Z,15.70
2018-01-26T18:25:52.964Z,7.33
2018-01-26T18:28:20.513Z,7.50
2018-01-26T18:30:48.514Z,7.50
2018-01-26T18:33:16.951Z,8.00
2018-01-26T18:35:44.633Z,10.40
2018-01-26T18:38:12.378Z,9.00
2018-01-26T18:40:40.112Z,10.60
2018-01-26T18:43:07.890Z,11.40
2018-01-26T18:45:35.640Z,10.13
2018-01-26T18:48:04.022Z,11.00
2018-01-26T18:50:31.793Z,13.40
2018-01-26T18:52:59.432Z,12.60
2018-01-26T18:55:27.209Z,14.07
2018-01-26T18:57:55.541Z,12.60
2018-01-26T19:00:24.191Z,14.40
2018-01-26T19:02:51.817Z,11.80
2018-01-26T19:05:19.515Z,11.00
2018-01-26T19:07:47.271Z,10.90
2018-01-26T19:10:14.857Z,9.83
2018-01-26T19:12:42.567Z,9.27
2018-01-26T19:15:10.249Z,9.03
2018-01-26T19:17:38.755Z,12.80
2018-01-26T19:20:06.636Z,12.70
2018-01-26T19:22:35.141Z,8.50
2018-01-26T19:25:02.850Z,13.10
2018-01-26T19:27:31.322Z,12.20
2018-01-26T19:29:59.720Z,10.10
2018-01-26T19:32:28.119Z,14.90
2018-01-26T19:34:56.031Z,11.90
2018-01-26T19:37:23.742Z,18.93
2018-01-26T19:39:52.151Z,11.10
2018-01-26T19:42:19.804Z,14.97
2018-01-26T19:44:48.569Z,14.70
2018-01-26T19:47:16.322Z,13.50
2018-01-26T19:49:44.778Z,14.77
2018-01-26T19:52:12.592Z,14.80
2018-01-26T19:54:45.068Z,18.50
2018-01-26T19:57:12.832Z,12.47
2018-01-26T19:59:40.651Z,13.97
2018-01-26T20:02:08.314Z,12.10
2018-01-26T20:04:35.971Z,13.10
2018-01-26T20:07:09.449Z,15.83
2018-01-26T20:09:37.130Z,12.40
2018-01-26T20:12:10.376Z,11.37
2018-01-26T20:14:38.068Z,21.13
2018-01-26T20:17:05.728Z,17.50
2018-01-26T20:19:33.503Z,12.50
2018-01-26T20:22:02.499Z,10.40
2018-01-26T20:24:30.277Z,12.27
2018-01-26T20:26:57.961Z,14.50
2018-01-26T20:29:25.900Z,14.13
2018-01-26T20:31:55.382Z,16.07
2018-01-26T20:34:23.786Z,16.07
2018-01-26T20:36:52.597Z,14.77
2018-01-26T20:39:20.195Z,11.10
2018-01-26T20:41:47.916Z,15.63
2018-01-26T20:44:15.505Z,12.90
2018-01-26T20:46:44.178Z,16.70
2018-01-26T20:49:12.867Z,16.77
2018-01-26T20:51:41.320Z,11.70
2018-01-26T20:54:09.770Z,12.20
2018-01-26T20:56:37.534Z,12.33
2018-01-26T20:59:05.361Z,10.93
2018-01-26T21:01:32.984Z,9.17
2018-01-26T21:04:00.710Z,10.70
2018-01-26T21:06:30.108Z,8.83
2018-01-26T21:08:58.514Z,14.03
2018-01-26T21:11:26.182Z,10.30
2018-01-26T21:13:53.748Z,9.77
2018-01-26T21:16:21.365Z,10.37
2018-01-26T21:18:49.743Z,10.93
2018-01-26T21:21:18.128Z,9.13
2018-01-26T21:23:46.075Z,9.20
2018-01-26T21:26:13.827Z,9.27
2018-01-26T21:28:41.554Z,10.10
2018-01-26T21:31:09.243Z,11.47
2018-01-26T21:33:36.968Z,10.27
2018-01-26T21:36:04.539Z,9.93
2018-01-26T21:38:33.267Z,12.20
2018-01-26T21:41:00.919Z,9.57
2018-01-26T21:43:28.501Z,13.60
2018-01-26T21:45:56.239Z,12.17
2018-01-26T21:48:23.968Z,11.50
2018-01-26T21:50:52.330Z,13.40
2018-01-26T21:53:20.673Z,12.10
2018-01-26T21:55:48.333Z,12.00
2018-01-26T21:58:15.909Z,10.80
2018-01-26T22:00:43.585Z,13.87
2018-01-26T22:03:11.370Z,15.10
2018-01-26T22:05:39.757Z,12.33
2018-01-26T22:08:08.357Z,11.80
2018-01-26T22:10:35.990Z,15.17
2018-01-26T22:13:04.650Z,16.60
2018-01-26T22:15:32.435Z,11.97
2018-01-26T22:18:00.941Z,12.90
2018-01-26T22:20:28.516Z,11.03
2018-01-26T22:22:56.204Z,18.53
2018-01-26T22:25:23.980Z,15.60
2018-01-26T22:27:52.246Z,13.57
2018-01-26T22:30:19.900Z,12.53
2018-01-26T22:32:47.617Z,14.33
2018-01-26T22:35:15.208Z,16.53
2018-01-26T22:37:43.093Z,14.33
2018-01-26T22:40:11.051Z,15.57
2018-01-26T22:42:38.678Z,19.00
2018-01-26T22:45:06.290Z,15.80
2018-01-26T22:47:33.971Z,17.07
2018-01-26T22:50:01.657Z,17.10
2018-01-26T22:52:30.057Z,19.00
2018-01-26T22:54:57.728Z,21.30
2018-01-26T22:57:25.314Z,21.23
2018-01-26T22:59:52.919Z,18.30
2018-01-26T23:02:21.205Z,21.90
2018-01-26T23:04:49.667Z,20.20
2018-01-26T23:07:17.428Z,21.27
2018-01-26T23:09:45.037Z,19.70
2018-01-26T23:12:12.665Z,30.43
2018-01-26T23:14:40.268Z,23.77
2018-01-26T23:17:07.925Z,21.57
2018-01-26T23:19:35.531Z,19.90
2018-01-26T23:22:03.246Z,25.13
2018-01-26T23:24:31.119Z,23.20
2018-01-26T23:26:58.936Z,19.50
2018-01-26T23:29:26.536Z,17.53
2018-01-26T23:31:54.908Z,19.43
2018-01-26T23:34:23.266Z,18.40
2018-01-26T23:36:50.912Z,24.87
2018-01-26T23:39:19.514Z,20.17
2018-01-26T23:41:47.994Z,22.57
2018-01-26T23:44:15.543Z,26.33
2018-01-26T23:46:43.236Z,19.10
2018-01-26T23:49:10.859Z,21.10
2018-01-26T23:51:38.657Z,27.70
2018-01-26T23:54:06.494Z,23.30
2018-01-26T23:56:34.114Z,20.17
2018-01-26T23:59:01.750Z,23.70
